createdAt,value
2019-04-22T00:01:43.474Z,74.73
2019-04-22T00:07:03.220Z,74.26
2019-04-22T00:12:06.106Z,75.20
2019-04-22T00:17:10.005Z,75.29
2019-04-22T00:22:07.729Z,74.99
2019-04-22T00:27:04.090Z,75.59
2019-04-22T00:31:58.994Z,75.46
2019-04-22T00:37:01.011Z,76.19
2019-04-22T00:41:57.051Z,74.63
2019-04-22T00:47:07.737Z,76.65
2019-04-22T00:57:02.546Z,77.28
2019-04-22T01:06:54.141Z,77.27
2019-04-22T01:12:00.617Z,77.01
2019-04-22T01:17:01.502Z,77.37
2019-04-22T01:21:56.109Z,77.04
2019-04-22T01:26:56.317Z,78.10
2019-04-22T01:31:36.611Z,78.18
2019-04-22T01:36:48.653Z,77.25
2019-04-22T01:41:59.768Z,77.81
2019-04-22T01:47:00.384Z,78.19
2019-04-22T01:51:54.695Z,77.92
2019-04-22T02:02:00.570Z,78.48
2019-04-22T02:06:57.555Z,78.98
2019-04-22T02:12:00.450Z,78.98
2019-04-22T02:21:50.574Z,79.55
2019-04-22T02:26:56.551Z,79.59
2019-04-22T02:36:56.268Z,79.76
2019-04-22T02:51:52.175Z,81.78
2019-04-22T02:57:00.855Z,82.27
2019-04-22T03:01:53.993Z,81.95
2019-04-22T03:06:38.461Z,81.82
2019-04-22T03:11:56.730Z,83.30
2019-04-22T03:16:53.063Z,80.56
2019-04-22T03:21:57.038Z,82.13
2019-04-22T03:26:59.119Z,82.43
2019-04-22T03:31:58.579Z,83.21
2019-04-22T03:37:21.351Z,83.42
2019-04-22T03:42:05.692Z,81.40
2019-04-22T03:52:04.959Z,82.87
2019-04-22T04:02:04.278Z,84.18
2019-04-22T04:07:15.098Z,82.29
2019-04-22T04:11:59.351Z,82.94
2019-04-22T04:16:54.817Z,83.60
2019-04-22T04:21:58.503Z,83.80
2019-04-22T04:37:12.779Z,84.91
2019-04-22T04:52:01.232Z,83.93
2019-04-22T04:56:40.661Z,83.30
2019-04-22T05:12:05.373Z,83.59
2019-04-22T05:26:52.786Z,83.77
2019-04-22T05:31:52.371Z,82.88
2019-04-22T05:36:47.755Z,82.86
2019-04-22T05:41:41.512Z,82.31
2019-04-22T05:51:38.644Z,82.81
2019-04-22T06:06:46.792Z,80.87
2019-04-22T06:11:38.572Z,80.36
2019-04-22T06:16:52.856Z,78.60
2019-04-22T06:21:44.402Z,78.27
2019-04-22T06:32:12.056Z,75.83
2019-04-22T06:41:47.827Z,71.96
2019-04-22T06:46:48.655Z,72.38
2019-04-22T06:51:45.328Z,72.72
2019-04-22T06:56:35.624Z,72.74
2019-04-22T07:01:42.511Z,71.82
2019-04-22T07:06:48.096Z,71.85
2019-04-22T07:11:43.336Z,66.76
2019-04-22T07:16:43.530Z,64.17
2019-04-22T07:26:29.183Z,63.17
2019-04-22T07:36:56.618Z,57.67
2019-04-22T07:41:31.758Z,58.43
2019-04-22T07:46:43.099Z,53.82
2019-04-22T07:51:36.771Z,49.68
2019-04-22T07:56:36.539Z,49.64
2019-04-22T08:01:39.978Z,45.16
2019-04-22T08:06:31.002Z,47.98
2019-04-22T08:11:51.315Z,46.50
2019-04-22T08:21:36.300Z,45.09
2019-04-22T08:31:40.319Z,42.78
2019-04-22T08:36:40.942Z,43.47
2019-04-22T08:41:33.483Z,41.07
2019-04-22T08:51:25.107Z,40.59
2019-04-22T08:56:30.943Z,40.55
2019-04-22T09:11:30.633Z,35.41
2019-04-22T09:21:32.829Z,34.22
2019-04-22T09:31:23.458Z,34.50
2019-04-22T09:36:33.840Z,35.25
2019-04-22T09:41:27.610Z,32.11
2019-04-22T09:51:31.144Z,34.81
2019-04-22T09:56:23.929Z,33.86
2019-04-22T10:06:35.322Z,38.45
2019-04-22T10:11:39.174Z,33.05
2019-04-22T10:16:26.956Z,34.08
2019-04-22T10:21:40.000Z,33.01
2019-04-22T10:26:34.563Z,34.13
2019-04-22T10:31:39.557Z,34.58
2019-04-22T10:36:07.859Z,35.50
2019-04-22T10:41:08.229Z,32.70
2019-04-22T10:46:08.419Z,35.31
2019-04-22T10:51:08.586Z,35.47
2019-04-22T11:01:07.561Z,31.89
2019-04-22T11:06:07.427Z,32.14
2019-04-22T11:11:20.436Z,30.06
2019-04-22T11:16:07.609Z,27.80
2019-04-22T11:21:07.493Z,31.01
2019-04-22T11:26:05.986Z,31.09
2019-04-22T11:31:06.194Z,31.08
2019-04-22T11:36:06.142Z,29.06
2019-04-22T11:46:07.324Z,30.69
2019-04-22T11:51:06.216Z,29.66
2019-04-22T11:56:04.863Z,29.82
2019-04-22T12:01:03.448Z,27.96
2019-04-22T12:06:03.938Z,30.03
2019-04-22T12:11:05.765Z,34.07
2019-04-22T12:16:01.527Z,33.46
2019-04-22T12:21:01.329Z,31.52
2019-04-22T12:30:59.726Z,32.31
2019-04-22T12:36:00.505Z,30.56
2019-04-22T12:41:05.870Z,33.81
2019-04-22T12:46:00.409Z,33.35
2019-04-22T12:51:00.827Z,34.07
2019-04-22T12:56:01.237Z,32.66
2019-04-22T13:01:01.229Z,30.60
2019-04-22T13:06:01.562Z,33.06
2019-04-22T13:11:04.740Z,31.81
2019-04-22T13:15:59.472Z,33.26
2019-04-22T13:21:00.397Z,30.47
2019-04-22T13:25:59.041Z,27.86
2019-04-22T13:31:00.228Z,29.60
2019-04-22T13:35:57.670Z,30.15
2019-04-22T13:41:07.293Z,30.60
2019-04-22T13:45:58.432Z,29.67
2019-04-22T13:51:33.095Z,25.95
2019-04-22T13:56:13.578Z,29.88
2019-04-22T14:00:56.599Z,30.32
2019-04-22T14:05:55.081Z,27.63
2019-04-22T14:10:54.469Z,29.26
2019-04-22T14:15:54.968Z,28.74
2019-04-22T14:20:54.541Z,27.21
2019-04-22T14:25:56.668Z,30.35
2019-04-22T14:30:56.882Z,29.41
2019-04-22T14:35:56.397Z,29.81
2019-04-22T14:40:54.802Z,31.12
2019-04-22T14:46:15.519Z,29.53
2019-04-22T14:51:11.567Z,31.34
2019-04-22T14:55:54.748Z,29.95
2019-04-22T15:00:55.112Z,29.55
2019-04-22T15:05:52.727Z,27.75
2019-04-22T15:10:53.815Z,28.92
2019-04-22T15:15:53.357Z,27.37
2019-04-22T15:20:54.271Z,29.03
2019-04-22T15:25:54.644Z,30.24
2019-04-22T15:30:53.210Z,27.91
2019-04-22T15:35:53.514Z,29.00
2019-04-22T15:40:52.558Z,28.61
2019-04-22T15:45:52.932Z,28.37
2019-04-22T15:50:52.988Z,29.54
2019-04-22T15:55:52.627Z,25.83
2019-04-22T16:01:00.044Z,24.63
2019-04-22T16:05:50.267Z,23.58
2019-04-22T16:10:49.322Z,22.73
2019-04-22T16:15:49.034Z,23.65
2019-04-22T16:20:50.277Z,22.86
2019-04-22T16:25:49.602Z,24.12
2019-04-22T16:30:48.985Z,24.27
2019-04-22T16:35:48.808Z,24.18
2019-04-22T16:40:46.401Z,24.69
2019-04-22T16:45:47.699Z,28.34
2019-04-22T16:50:48.667Z,26.64
2019-04-22T16:55:46.724Z,27.37
2019-04-22T17:00:46.903Z,27.49
2019-04-22T17:05:45.571Z,28.16
2019-04-22T17:10:43.895Z,27.71
2019-04-22T17:15:43.311Z,29.25
2019-04-22T17:20:42.620Z,30.42
2019-04-22T17:25:42.647Z,29.95
2019-04-22T17:30:41.661Z,32.61
2019-04-22T17:35:43.602Z,32.66
2019-04-22T17:40:51.161Z,31.67
2019-04-22T17:45:59.891Z,35.65
2019-04-22T17:51:11.235Z,33.10
2019-04-22T18:01:02.738Z,34.31
2019-04-22T18:05:51.678Z,35.51
2019-04-22T18:16:02.082Z,36.37
2019-04-22T18:21:00.065Z,35.16
2019-04-22T18:25:59.079Z,35.96
2019-04-22T18:30:56.967Z,35.99
2019-04-22T18:36:02.721Z,36.63
2019-04-22T18:40:59.014Z,35.76
2019-04-22T18:46:06.075Z,38.66
2019-04-22T18:51:04.837Z,38.82
2019-04-22T18:55:55.444Z,36.96
2019-04-22T19:00:41.746Z,35.35
2019-04-22T19:06:02.678Z,35.55
2019-04-22T19:16:09.731Z,37.11
2019-04-22T19:25:59.647Z,36.48
2019-04-22T19:31:02.690Z,39.10
2019-04-22T19:35:59.513Z,37.79
2019-04-22T19:41:11.663Z,38.79
2019-04-22T19:45:55.741Z,39.33
2019-04-22T19:51:06.098Z,39.98
2019-04-22T19:55:55.561Z,39.64
2019-04-22T20:00:49.186Z,40.54
2019-04-22T20:05:59.211Z,38.31
2019-04-22T20:10:59.134Z,39.03
2019-04-22T20:15:49.063Z,38.88
2019-04-22T20:20:56.857Z,38.01
2019-04-22T20:25:51.166Z,39.35
2019-04-22T20:30:56.197Z,38.04
2019-04-22T20:35:52.005Z,37.89
2019-04-22T20:40:55.041Z,37.54
2019-04-22T20:45:57.740Z,37.22
2019-04-22T20:50:58.144Z,37.57
2019-04-22T20:56:00.635Z,36.86
2019-04-22T21:00:53.128Z,35.36
2019-04-22T21:05:46.802Z,38.40
2019-04-22T21:10:52.041Z,36.17
2019-04-22T21:20:57.304Z,39.57
2019-04-22T21:25:54.823Z,39.36
2019-04-22T21:30:57.167Z,41.02
2019-04-22T21:36:03.074Z,40.95
2019-04-22T21:40:54.852Z,42.63
2019-04-22T21:45:53.050Z,40.36
2019-04-22T21:50:59.651Z,40.62
2019-04-22T21:56:02.627Z,39.94
2019-04-22T22:05:48.097Z,40.74
2019-04-22T22:10:52.562Z,41.90
2019-04-22T22:15:51.155Z,42.96
2019-04-22T22:21:13.047Z,43.20
2019-04-22T22:25:50.762Z,42.76
2019-04-22T22:35:51.668Z,45.08
2019-04-22T22:40:35.740Z,46.23
2019-04-22T22:45:39.392Z,46.56
2019-04-22T22:55:52.100Z,46.15
2019-04-22T23:00:44.474Z,46.39
2019-04-22T23:05:45.816Z,46.50
2019-04-22T23:10:55.508Z,48.97
2019-04-22T23:20:32.478Z,47.28
2019-04-22T23:25:50.027Z,48.94
2019-04-22T23:30:36.642Z,49.43
2019-04-22T23:35:42.392Z,49.85
2019-04-22T23:40:44.411Z,50.02
2019-04-22T23:45:40.449Z,48.41
2019-04-22T23:50:39.195Z,48.59
2019-04-22T23:55:44.777Z,50.03
